Airport View

Enter AWOS ICAO identifier for current METAR.

ex. KFNL

KBKE 261153Z AUTO 00000KT 10SM CLR 08/06 A2991 RMK AO2 SLP112 60000 T00830061 10122 20072 55003

26 Jun 2019 12:45

Frequency: 134.275

Phone: 541-523-5412

Other Area AWOS: KLGD - KMEH - KGCD - KONO

TAF KBKE 261120Z 2612/2712 VRB06KT P6SM VCSH BKN100 FM262100 19010G20KT P6SM VCSH BKN100 PROB30 2621/2702 P6SM TSRA BKN050CB FM270200 30010G20KT P6SM VCSH BKN100 FM270600 32008KT P6SM VCSH BKN100